createdAt,value
2023-04-20T00:01:24.109Z,14.76
2023-04-20T00:03:50.742Z,14.72
2023-04-20T00:06:18.036Z,14.69
2023-04-20T00:08:44.550Z,14.57
2023-04-20T00:11:11.066Z,14.56
2023-04-20T00:13:37.646Z,14.47
2023-04-20T00:16:04.686Z,14.52
2023-04-20T00:18:31.252Z,14.53
2023-04-20T00:20:57.828Z,14.49
2023-04-20T00:23:24.346Z,14.42
2023-04-20T00:25:51.757Z,14.41
2023-04-20T00:28:18.349Z,14.40
2023-04-20T00:30:44.942Z,14.44
2023-04-20T00:33:11.518Z,14.42
2023-04-20T00:35:38.067Z,14.37
2023-04-20T00:38:04.620Z,14.35
2023-04-20T00:40:31.310Z,14.24
2023-04-20T00:42:57.900Z,14.19
2023-04-20T00:45:24.506Z,14.18
2023-04-20T00:47:51.669Z,14.13
2023-04-20T00:50:18.316Z,14.22
2023-04-20T00:52:45.580Z,14.14
2023-04-20T00:55:13.784Z,14.11
2023-04-20T00:57:41.663Z,14.13
2023-04-20T01:00:09.692Z,14.14
2023-04-20T01:02:36.558Z,14.18
2023-04-20T01:05:03.969Z,14.20
2023-04-20T01:07:30.488Z,14.13
2023-04-20T01:09:57.069Z,14.05
2023-04-20T01:12:23.612Z,14.02
2023-04-20T01:14:50.301Z,14.06
2023-04-20T01:17:17.601Z,14.06
2023-04-20T01:19:45.018Z,14.04
2023-04-20T01:22:18.703Z,14.04
2023-04-20T01:24:45.530Z,13.94
2023-04-20T01:27:13.651Z,13.88
2023-04-20T01:29:40.559Z,13.81
2023-04-20T01:32:07.159Z,13.86
2023-04-20T01:34:34.157Z,13.83
2023-04-20T01:37:01.792Z,13.73
2023-04-20T01:39:28.554Z,13.75
2023-04-20T01:41:55.079Z,13.68
2023-04-20T01:44:21.620Z,13.66
2023-04-20T01:46:48.161Z,13.63
2023-04-20T01:49:14.774Z,13.53
2023-04-20T01:51:41.599Z,13.42
2023-04-20T01:54:08.122Z,13.37
2023-04-20T01:56:34.708Z,13.36
2023-04-20T01:59:01.288Z,13.35
2023-04-20T02:01:27.855Z,13.40
2023-04-20T02:03:54.548Z,13.38
2023-04-20T02:06:21.235Z,13.26
2023-04-20T02:08:47.998Z,13.25
2023-04-20T02:11:14.577Z,13.21
2023-04-20T02:13:41.398Z,13.14
2023-04-20T02:16:08.082Z,13.19
2023-04-20T02:18:34.636Z,13.14
2023-04-20T02:21:01.678Z,13.08
2023-04-20T02:23:28.204Z,13.03
2023-04-20T02:25:54.945Z,12.90
2023-04-20T02:28:21.471Z,12.85
2023-04-20T02:30:48.067Z,12.82
2023-04-20T02:33:14.753Z,12.82
2023-04-20T02:35:41.300Z,12.74
2023-04-20T02:38:07.868Z,12.73
2023-04-20T02:40:34.783Z,12.77
2023-04-20T02:43:01.305Z,12.79
2023-04-20T02:45:27.936Z,12.77
2023-04-20T02:47:54.675Z,12.79
2023-04-20T02:50:21.384Z,12.81
2023-04-20T02:52:47.950Z,12.83
2023-04-20T02:55:15.333Z,12.85
2023-04-20T02:57:42.629Z,12.94
2023-04-20T03:00:09.638Z,12.85
2023-04-20T03:02:37.625Z,12.89
2023-04-20T03:05:04.639Z,12.80
2023-04-20T03:07:31.615Z,12.71
2023-04-20T03:09:58.168Z,12.74
2023-04-20T03:12:26.201Z,12.71
2023-04-20T03:14:52.760Z,12.66
2023-04-20T03:17:19.333Z,12.60
2023-04-20T03:19:46.620Z,12.64
2023-04-20T03:22:13.144Z,12.74
2023-04-20T03:24:39.660Z,12.81
2023-04-20T03:27:06.273Z,12.80
2023-04-20T03:29:32.793Z,12.81
2023-04-20T03:31:59.398Z,12.79
2023-04-20T03:34:26.794Z,12.77
2023-04-20T03:36:53.377Z,12.64
2023-04-20T03:39:20.143Z,12.58
2023-04-20T03:41:47.342Z,12.48
2023-04-20T03:44:15.138Z,12.55
2023-04-20T03:46:41.671Z,12.62
2023-04-20T03:49:08.233Z,12.66
2023-04-20T03:51:34.781Z,12.53
2023-04-20T03:54:01.277Z,12.53
2023-04-20T03:56:28.489Z,12.51
2023-04-20T03:58:55.102Z,12.45
2023-04-20T04:01:21.641Z,12.52
2023-04-20T04:03:49.001Z,12.46
2023-04-20T04:06:16.082Z,12.36
2023-04-20T04:08:43.035Z,12.36
2023-04-20T04:11:09.687Z,12.30
2023-04-20T04:13:36.210Z,12.32
2023-04-20T04:16:02.777Z,12.42
2023-04-20T04:18:32.780Z,12.31
2023-04-20T04:20:59.502Z,12.29
2023-04-20T04:23:26.416Z,12.28
2023-04-20T04:25:52.957Z,12.26
2023-04-20T04:28:19.720Z,12.09
2023-04-20T04:30:47.358Z,12.17
2023-04-20T04:33:14.740Z,12.20
2023-04-20T04:35:41.685Z,12.22
2023-04-20T04:38:08.326Z,12.10
2023-04-20T04:40:34.921Z,12.07
2023-04-20T04:43:01.445Z,12.07
2023-04-20T04:45:28.538Z,12.09
2023-04-20T04:47:55.324Z,12.04
2023-04-20T04:50:22.374Z,11.97
2023-04-20T04:52:48.972Z,11.95
2023-04-20T04:55:16.536Z,12.03
2023-04-20T04:57:43.339Z,12.03
2023-04-20T05:00:11.936Z,11.90
2023-04-20T05:02:38.964Z,11.84
2023-04-20T05:05:08.220Z,11.89
2023-04-20T05:07:36.299Z,11.94
2023-04-20T05:10:02.928Z,11.94
2023-04-20T05:12:29.490Z,12.00
2023-04-20T05:14:55.984Z,12.01
2023-04-20T05:17:23.333Z,11.92
2023-04-20T05:19:49.905Z,11.92
2023-04-20T05:22:17.262Z,11.91
2023-04-20T05:24:43.806Z,12.02
2023-04-20T05:27:11.356Z,11.95
2023-04-20T05:29:38.849Z,11.81
2023-04-20T05:32:05.775Z,11.92
2023-04-20T05:34:32.366Z,11.88
2023-04-20T05:36:59.588Z,11.81
2023-04-20T05:39:26.448Z,11.80
2023-04-20T05:41:53.199Z,11.82
2023-04-20T05:44:19.984Z,11.85
2023-04-20T05:46:47.901Z,11.84
2023-04-20T05:49:14.556Z,11.89
2023-04-20T05:51:41.175Z,11.92
2023-04-20T05:54:07.787Z,11.96
2023-04-20T05:56:34.382Z,11.96
2023-04-20T05:59:01.331Z,12.05
2023-04-20T06:01:28.011Z,11.89
2023-04-20T06:03:55.000Z,11.96
2023-04-20T06:06:21.931Z,12.03
2023-04-20T06:08:48.716Z,12.15
2023-04-20T06:11:15.513Z,12.23
2023-04-20T06:13:41.998Z,12.25
2023-04-20T06:16:11.025Z,12.25
2023-04-20T06:18:37.756Z,12.24
2023-04-20T06:21:04.639Z,12.24
2023-04-20T06:23:31.512Z,12.21
2023-04-20T06:25:58.180Z,12.24
2023-04-20T06:28:24.784Z,12.36
2023-04-20T06:30:51.442Z,12.39
2023-04-20T06:33:18.034Z,12.40
2023-04-20T06:35:44.632Z,12.56
2023-04-20T06:38:11.214Z,12.60
2023-04-20T06:40:37.836Z,12.54
2023-04-20T06:43:04.425Z,12.55
2023-04-20T06:45:32.840Z,12.51
2023-04-20T06:48:00.738Z,12.62
2023-04-20T06:50:27.573Z,12.61
2023-04-20T06:52:54.270Z,12.64
2023-04-20T06:55:21.381Z,12.62
2023-04-20T06:57:47.957Z,12.72
2023-04-20T07:00:15.038Z,12.71
2023-04-20T07:02:46.425Z,12.77
2023-04-20T07:05:14.445Z,12.91
2023-04-20T07:07:41.529Z,12.93
2023-04-20T07:10:09.590Z,12.92
2023-04-20T07:12:37.319Z,13.04
2023-04-20T07:15:05.600Z,13.10
2023-04-20T07:17:32.695Z,13.18
2023-04-20T07:20:06.039Z,13.29
2023-04-20T07:22:33.327Z,13.34
2023-04-20T07:25:02.620Z,13.34
2023-04-20T07:27:30.442Z,13.31
2023-04-20T07:29:59.362Z,13.49
2023-04-20T07:32:26.032Z,13.50
2023-04-20T07:34:52.642Z,13.50
2023-04-20T07:37:19.746Z,13.63
2023-04-20T07:39:46.272Z,13.66
2023-04-20T07:42:12.844Z,13.65
2023-04-20T07:44:39.453Z,13.69
2023-04-20T07:47:06.042Z,13.74
2023-04-20T07:49:36.839Z,13.85
2023-04-20T07:52:15.169Z,13.87
2023-04-20T07:54:42.725Z,13.84
2023-04-20T07:57:09.543Z,13.89
2023-04-20T07:59:36.477Z,13.95
2023-04-20T08:02:03.888Z,13.96
2023-04-20T08:04:30.932Z,14.05
2023-04-20T08:06:58.164Z,14.06
2023-04-20T08:09:26.221Z,14.13
2023-04-20T08:11:53.000Z,14.21
2023-04-20T08:14:19.779Z,14.31
2023-04-20T08:16:46.665Z,14.31
2023-04-20T08:21:45.026Z,14.40
2023-04-20T08:24:12.287Z,14.42
2023-04-20T08:26:39.584Z,14.47
2023-04-20T08:29:06.339Z,14.52
2023-04-20T08:31:32.974Z,14.58
2023-04-20T08:33:59.994Z,14.65
2023-04-20T08:36:26.785Z,14.70
2023-04-20T08:38:58.130Z,14.76
2023-04-20T08:41:25.899Z,14.81
2023-04-20T08:43:52.476Z,14.87
2023-04-20T08:46:19.630Z,14.94
2023-04-20T08:48:48.636Z,15.01
2023-04-20T08:51:16.045Z,15.08
2023-04-20T08:53:42.833Z,15.14
2023-04-20T08:56:09.498Z,15.20
2023-04-20T08:58:36.097Z,15.30
2023-04-20T09:01:02.722Z,15.43
2023-04-20T09:03:41.219Z,15.40
2023-04-20T09:06:18.392Z,15.50
2023-04-20T09:08:46.429Z,15.59
2023-04-20T09:11:26.643Z,15.63
2023-04-20T09:14:02.206Z,15.78
2023-04-20T09:16:29.234Z,15.83
2023-04-20T09:18:56.937Z,15.95
2023-04-20T09:21:25.509Z,16.10
2023-04-20T09:24:08.081Z,16.15
2023-04-20T09:26:36.348Z,16.16
2023-04-20T09:29:03.967Z,16.22
2023-04-20T09:31:30.650Z,16.33
2023-04-20T09:34:03.972Z,16.49
2023-04-20T09:36:43.240Z,16.75
2023-04-20T09:39:11.735Z,16.88
2023-04-20T09:41:40.156Z,16.85
2023-04-20T09:44:08.755Z,16.94
2023-04-20T09:46:37.363Z,17.00
2023-04-20T09:49:06.669Z,17.08
2023-04-20T09:51:36.134Z,17.20
2023-04-20T09:54:05.709Z,17.33
2023-04-20T09:56:33.440Z,17.48
2023-04-20T09:59:01.172Z,17.59
2023-04-20T10:01:31.596Z,17.53
2023-04-20T10:04:00.347Z,17.68
2023-04-20T10:06:32.686Z,17.79
2023-04-20T10:09:02.422Z,17.82
2023-04-20T10:11:51.656Z,17.93
2023-04-20T10:14:25.352Z,17.89
2023-04-20T10:17:07.208Z,17.86
2023-04-20T10:19:44.294Z,17.92
2023-04-20T10:22:13.109Z,17.97
2023-04-20T10:24:40.430Z,17.97
2023-04-20T10:27:36.158Z,18.60
2023-04-20T10:30:12.676Z,18.78
2023-04-20T10:32:39.338Z,19.13
2023-04-20T10:35:08.766Z,18.95
2023-04-20T10:37:36.217Z,18.79
2023-04-20T10:40:07.471Z,19.01
2023-04-20T10:42:46.603Z,19.10
2023-04-20T10:45:13.537Z,19.00
2023-04-20T10:47:44.336Z,19.29
2023-04-20T10:50:16.137Z,19.19
2023-04-20T10:52:44.538Z,19.27
2023-04-20T10:55:24.539Z,19.50
2023-04-20T10:57:52.329Z,19.68
2023-04-20T11:00:21.744Z,19.63
2023-04-20T11:02:49.970Z,19.92
2023-04-20T11:05:18.010Z,20.28
2023-04-20T11:08:06.146Z,20.36
2023-04-20T11:10:40.719Z,20.26
2023-04-20T11:13:07.620Z,20.05
2023-04-20T11:15:35.387Z,19.75
2023-04-20T11:18:09.975Z,20.26
2023-04-20T11:20:36.864Z,20.20
2023-04-20T11:23:05.931Z,20.40
2023-04-20T11:25:33.078Z,20.44
2023-04-20T11:28:09.210Z,20.59
2023-04-20T11:30:41.480Z,20.52
2023-04-20T11:33:08.598Z,20.59
2023-04-20T11:35:40.082Z,20.67
2023-04-20T11:38:07.447Z,20.50
2023-04-20T11:40:35.334Z,20.54
2023-04-20T11:43:02.398Z,20.54
2023-04-20T11:45:35.669Z,20.53
2023-04-20T11:48:04.139Z,20.53
2023-04-20T11:50:30.810Z,20.42
2023-04-20T11:52:57.339Z,20.59
2023-04-20T11:55:23.979Z,20.62
2023-04-20T11:57:50.688Z,20.78
2023-04-20T12:00:18.228Z,21.16
2023-04-20T12:02:45.113Z,21.08
2023-04-20T12:05:12.364Z,21.10
2023-04-20T12:07:39.059Z,21.14
2023-04-20T12:10:08.065Z,21.20
2023-04-20T12:12:34.602Z,21.26
2023-04-20T12:15:01.716Z,21.38
2023-04-20T12:17:28.501Z,21.50
2023-04-20T12:19:55.375Z,21.72
2023-04-20T12:22:21.884Z,21.82
2023-04-20T12:24:48.398Z,21.67
2023-04-20T12:27:14.956Z,21.67
2023-04-20T12:29:41.481Z,21.64
2023-04-20T12:32:08.015Z,21.66
2023-04-20T12:34:34.575Z,21.59
2023-04-20T12:37:01.142Z,21.75
2023-04-20T12:39:27.642Z,21.69
2023-04-20T12:41:54.434Z,21.64
2023-04-20T12:44:21.284Z,21.83
2023-04-20T12:46:48.117Z,21.80
2023-04-20T12:49:14.714Z,21.84
2023-04-20T12:51:41.334Z,22.01
2023-04-20T12:54:08.472Z,22.18
2023-04-20T12:56:36.449Z,21.92
2023-04-20T12:59:03.716Z,21.92
2023-04-20T13:01:30.650Z,22.08
2023-04-20T13:03:57.500Z,21.85
2023-04-20T13:06:24.232Z,22.17
2023-04-20T13:08:51.132Z,22.02
2023-04-20T13:11:18.058Z,21.91
2023-04-20T13:13:44.693Z,21.95
2023-04-20T13:16:11.577Z,22.08
2023-04-20T13:18:38.410Z,22.10
2023-04-20T13:21:05.720Z,21.91
2023-04-20T13:23:32.429Z,22.03
2023-04-20T13:26:01.464Z,22.02
2023-04-20T13:28:28.069Z,22.04
2023-04-20T13:30:57.510Z,22.00
2023-04-20T13:33:24.285Z,22.20
2023-04-20T13:35:50.819Z,21.93
2023-04-20T13:38:17.960Z,22.02
2023-04-20T13:40:44.592Z,21.93
2023-04-20T13:43:11.888Z,22.21
2023-04-20T13:45:38.722Z,22.16
2023-04-20T13:48:06.226Z,22.18
2023-04-20T13:50:32.862Z,22.36
2023-04-20T13:52:59.543Z,22.11
2023-04-20T13:55:27.167Z,21.92
2023-04-20T13:57:53.821Z,21.85
2023-04-20T14:00:20.728Z,21.84
2023-04-20T14:02:47.790Z,21.68
2023-04-20T14:05:14.392Z,21.53
2023-04-20T14:07:41.021Z,21.75
2023-04-20T14:10:08.292Z,22.01
2023-04-20T14:12:35.202Z,21.86
2023-04-20T14:15:01.808Z,21.74
2023-04-20T14:17:28.363Z,21.63
2023-04-20T14:19:55.328Z,21.95
2023-04-20T14:22:21.879Z,22.18
2023-04-20T14:24:48.724Z,21.75
2023-04-20T14:27:15.519Z,21.77
2023-04-20T14:29:42.212Z,21.84
2023-04-20T14:32:08.789Z,21.90
2023-04-20T14:34:36.059Z,22.02
2023-04-20T14:37:02.644Z,21.95
2023-04-20T14:39:29.170Z,21.80
2023-04-20T14:41:56.262Z,21.65
2023-04-20T14:44:22.790Z,21.81
2023-04-20T14:46:49.451Z,22.11
2023-04-20T14:49:16.125Z,21.77
2023-04-20T14:51:42.689Z,21.68
2023-04-20T14:54:09.318Z,22.01
2023-04-20T14:56:35.935Z,21.96
2023-04-20T14:59:02.641Z,22.36
2023-04-20T15:01:29.278Z,22.13
2023-04-20T15:03:56.213Z,22.34
2023-04-20T15:06:23.087Z,22.15
2023-04-20T15:08:49.755Z,22.23
2023-04-20T15:11:16.328Z,22.02
2023-04-20T15:13:43.795Z,21.96
2023-04-20T15:16:10.553Z,22.18
2023-04-20T15:18:37.158Z,22.29
2023-04-20T15:21:03.908Z,22.07
2023-04-20T15:23:30.457Z,22.10
2023-04-20T15:25:57.043Z,21.98
2023-04-20T15:28:23.627Z,22.40
2023-04-20T15:30:50.515Z,22.58
2023-04-20T15:33:17.444Z,22.44
2023-04-20T15:35:44.166Z,22.26
2023-04-20T15:38:10.963Z,22.26
2023-04-20T15:40:38.808Z,22.54
2023-04-20T15:43:05.962Z,22.38
2023-04-20T15:45:32.640Z,22.30
2023-04-20T15:48:00.765Z,22.32
2023-04-20T15:50:27.484Z,22.49
2023-04-20T15:52:54.826Z,22.41
2023-04-20T15:55:21.859Z,22.56
2023-04-20T15:57:48.491Z,22.74
2023-04-20T16:00:15.504Z,22.81
2023-04-20T16:02:42.574Z,22.93
2023-04-20T16:05:09.587Z,23.53
2023-04-20T16:07:36.318Z,24.04
2023-04-20T16:10:03.114Z,23.79
2023-04-20T16:12:29.941Z,23.42
2023-04-20T16:14:57.300Z,23.06
2023-04-20T16:17:24.216Z,23.38
2023-04-20T16:19:51.018Z,23.03
2023-04-20T16:22:17.936Z,22.74
2023-04-20T16:24:44.586Z,22.52
2023-04-20T16:27:11.231Z,22.70
2023-04-20T16:29:37.882Z,22.97
2023-04-20T16:32:04.637Z,23.21
2023-04-20T16:34:31.682Z,23.19
2023-04-20T16:36:58.664Z,23.26
2023-04-20T16:39:25.404Z,23.23
2023-04-20T16:41:51.957Z,23.72
2023-04-20T16:44:18.749Z,24.02
2023-04-20T16:46:54.560Z,23.96
2023-04-20T16:49:21.123Z,23.31
2023-04-20T16:51:48.097Z,23.06
2023-04-20T16:54:14.999Z,22.89
2023-04-20T16:56:41.903Z,22.70
2023-04-20T16:59:08.528Z,22.52
2023-04-20T17:01:35.267Z,22.23
2023-04-20T17:04:02.236Z,22.20
2023-04-20T17:06:29.186Z,22.02
2023-04-20T17:08:57.593Z,22.36
2023-04-20T17:11:24.240Z,22.62
2023-04-20T17:13:50.882Z,22.82
2023-04-20T17:16:17.528Z,22.57
2023-04-20T17:18:44.103Z,22.39
2023-04-20T17:21:10.783Z,22.04
2023-04-20T17:23:37.415Z,21.82
2023-04-20T17:26:04.022Z,21.77
2023-04-20T17:28:30.669Z,21.72
2023-04-20T17:30:57.217Z,21.71
2023-04-20T17:33:23.745Z,21.59
2023-04-20T17:35:50.427Z,21.54
2023-04-20T17:38:17.471Z,21.50
2023-04-20T17:40:44.030Z,21.41
2023-04-20T17:43:11.155Z,21.43
2023-04-20T17:45:37.803Z,21.41
2023-04-20T17:48:05.391Z,21.41
2023-04-20T17:50:32.075Z,21.36
2023-04-20T17:52:58.698Z,21.23
2023-04-20T17:55:25.471Z,21.33
2023-04-20T17:57:52.001Z,21.39
2023-04-20T18:00:20.456Z,21.34
2023-04-20T18:02:47.099Z,21.42
2023-04-20T18:05:14.223Z,21.57
2023-04-20T18:07:40.823Z,21.53
2023-04-20T18:10:08.145Z,21.47
2023-04-20T18:12:34.753Z,21.43
2023-04-20T18:15:01.456Z,21.30
2023-04-20T18:17:28.044Z,21.22
2023-04-20T18:19:54.599Z,21.12
2023-04-20T18:22:21.212Z,21.06
2023-04-20T18:24:47.768Z,20.94
2023-04-20T18:27:14.297Z,20.95
2023-04-20T18:29:40.883Z,20.82
2023-04-20T18:32:08.077Z,20.77
2023-04-20T18:34:35.092Z,20.73
2023-04-20T18:37:01.654Z,20.63
2023-04-20T18:39:28.208Z,20.54
2023-04-20T18:41:54.763Z,20.45
2023-04-20T18:44:21.695Z,20.44
2023-04-20T18:46:48.458Z,20.41
2023-04-20T18:49:15.090Z,20.37
2023-04-20T18:51:41.638Z,20.32
2023-04-20T18:54:08.184Z,20.23
2023-04-20T18:56:34.806Z,20.15
2023-04-20T18:59:01.649Z,20.09
2023-04-20T19:01:28.619Z,20.02
2023-04-20T19:03:55.698Z,19.96
2023-04-20T19:06:22.741Z,19.93
2023-04-20T19:08:51.426Z,19.90
2023-04-20T19:11:18.027Z,19.88
2023-04-20T19:13:45.431Z,19.85
2023-04-20T19:16:12.636Z,19.81
2023-04-20T19:18:39.677Z,19.78
2023-04-20T19:21:06.652Z,19.74
2023-04-20T19:23:35.744Z,19.69
2023-04-20T19:26:02.765Z,19.64
2023-04-20T19:28:29.571Z,19.62
2023-04-20T19:30:56.985Z,19.57
2023-04-20T19:33:23.548Z,19.52
2023-04-20T19:35:53.001Z,19.47
2023-04-20T19:38:20.742Z,19.43
2023-04-20T19:40:48.548Z,19.41
2023-04-20T19:43:17.007Z,19.37
2023-04-20T19:45:43.716Z,19.32
2023-04-20T19:48:10.544Z,19.30
2023-04-20T19:50:37.160Z,19.28
2023-04-20T19:53:04.378Z,19.26
2023-04-20T19:55:31.112Z,19.23
2023-04-20T19:57:57.682Z,19.17
2023-04-20T20:00:24.474Z,19.16
2023-04-20T20:02:51.254Z,19.10
2023-04-20T20:05:17.946Z,19.06
2023-04-20T20:07:44.411Z,19.04
2023-04-20T20:10:10.970Z,18.99
2023-04-20T20:12:37.758Z,18.99
2023-04-20T20:15:04.843Z,18.96
2023-04-20T20:17:31.533Z,18.92
2023-04-20T20:19:58.328Z,18.89
2023-04-20T20:22:25.503Z,18.88
2023-04-20T20:24:54.528Z,18.85
2023-04-20T20:27:21.563Z,18.82
2023-04-20T20:29:48.236Z,18.77
2023-04-20T20:32:15.106Z,18.77
2023-04-20T20:34:41.897Z,18.74
2023-04-20T20:37:10.396Z,18.74
2023-04-20T20:39:37.564Z,18.73
2023-04-20T20:42:05.064Z,18.73
2023-04-20T20:44:34.224Z,18.68
2023-04-20T20:47:01.100Z,18.66
2023-04-20T20:49:28.014Z,18.62
2023-04-20T20:51:54.954Z,18.60
2023-04-20T20:54:21.539Z,18.60
2023-04-20T20:56:48.135Z,18.57
2023-04-20T20:59:14.787Z,18.53
2023-04-20T21:01:41.371Z,18.48
2023-04-20T21:04:08.338Z,18.44
2023-04-20T21:06:35.066Z,18.45
2023-04-20T21:09:01.702Z,18.44
2023-04-20T21:11:28.247Z,18.37
2023-04-20T21:13:56.408Z,18.33
2023-04-20T21:16:23.493Z,18.33
2023-04-20T21:18:50.073Z,18.31
2023-04-20T21:21:16.778Z,18.29
2023-04-20T21:23:43.334Z,18.27
2023-04-20T21:26:09.971Z,18.24
2023-04-20T21:28:36.472Z,18.22
2023-04-20T21:31:03.262Z,18.18
2023-04-20T21:33:29.829Z,18.17
2023-04-20T21:35:58.847Z,18.15
2023-04-20T21:38:26.500Z,18.12
2023-04-20T21:40:53.048Z,18.12
2023-04-20T21:43:19.651Z,18.06
2023-04-20T21:45:46.236Z,18.04
2023-04-20T21:48:12.882Z,18.03
2023-04-20T21:50:39.446Z,17.96
2023-04-20T21:53:05.991Z,17.97
2023-04-20T21:55:32.491Z,17.95
2023-04-20T21:57:59.008Z,17.94
2023-04-20T22:00:25.602Z,17.94
2023-04-20T22:02:52.235Z,17.90
2023-04-20T22:05:19.013Z,17.85
2023-04-20T22:07:46.070Z,17.84
2023-04-20T22:10:12.620Z,17.81
2023-04-20T22:12:40.772Z,17.76
2023-04-20T22:15:12.212Z,17.68
2023-04-20T22:17:39.054Z,17.61
2023-04-20T22:20:08.230Z,17.65
2023-04-20T22:22:39.013Z,17.62
2023-04-20T22:25:07.780Z,17.61
2023-04-20T22:27:35.849Z,17.56
2023-04-20T22:30:02.699Z,17.57
2023-04-20T22:32:29.690Z,17.54
2023-04-20T22:34:56.197Z,17.50
2023-04-20T22:37:22.834Z,17.49
2023-04-20T22:39:49.375Z,17.41
2023-04-20T22:42:16.024Z,17.41
2023-04-20T22:44:42.542Z,17.40
2023-04-20T22:47:09.113Z,17.33
2023-04-20T22:49:35.904Z,17.35
2023-04-20T22:52:02.781Z,17.33
2023-04-20T22:54:30.329Z,17.33
2023-04-20T22:56:57.228Z,17.30
2023-04-20T22:59:23.838Z,17.26
2023-04-20T23:01:50.462Z,17.23
2023-04-20T23:04:17.081Z,17.22
2023-04-20T23:06:47.371Z,17.20
2023-04-20T23:09:17.286Z,17.17
2023-04-20T23:11:47.292Z,17.11
2023-04-20T23:14:14.237Z,17.03
2023-04-20T23:16:41.131Z,16.95
2023-04-20T23:19:07.807Z,16.92
2023-04-20T23:21:34.511Z,16.95
2023-04-20T23:24:01.757Z,16.93
2023-04-20T23:26:28.312Z,16.86
2023-04-20T23:28:54.939Z,16.83
2023-04-20T23:31:21.538Z,16.73
2023-04-20T23:33:48.390Z,16.82
2023-04-20T23:36:15.290Z,16.84
2023-04-20T23:38:41.860Z,16.81
2023-04-20T23:41:10.499Z,16.81
2023-04-20T23:43:38.456Z,16.69
2023-04-20T23:46:06.432Z,16.58
2023-04-20T23:48:33.776Z,16.70
2023-04-20T23:51:01.305Z,16.75
2023-04-20T23:53:27.850Z,16.72
2023-04-20T23:55:57.659Z,16.68
2023-04-20T23:58:25.718Z,16.67
